YOSEMITE NATIONAL PARK, CA

1:28 PM PDT on September 01, 2014 (GMT -0700)
GIN FLAT | Change Station
CLOSE
Current Station
Personal Weather Station
Location: Yosemite National Park, CA
Elevation: 7083 ft
Nearby Weather Stations

Elev 7083 ft 37.77 °N, 119.77 °W | Updated 11 minutes ago

Clear
Clear
78.0 °F
Feels Like 78 °F
N
4.0
Wind Variable Wind from NW

Today
High -- | Low -- °F
--% Chance of Precip.
Yesterday
High -- | Low -- °F
Precip. -- in
6:29 AM 7:27 PM
Waxing Crescent, 44% visible
Pressure 30.18 in
Visibility 10.0 miles
Clouds Clear
Heat Index 78 °F
Dew Point 40 °F
Humidity 25%
Rainfall -999.00 in
Snow Depth Not available.
UV 11 out of 12
Pollen 9.20 out of 12
Air Quality Not available.
Flu Activity Not available.
METAR KMMH 012015Z AUTO 11009G14KT 10SM CLR 28/M03 A3018 RMK AO1

More Conditions Fewer Conditions

Pressure 30.18 in
Visibility 10.0 miles
Clouds Clear
Heat Index 78 °F
Dew Point 40 °F
Humidity 25%
Rainfall -999.00 in
Snow Depth Not available.
UV 11 out of 12
Pollen 9.20 out of 12
Air Quality Not available.
Flu Activity Not available.
METAR KMMH 012015Z AUTO 11009G14KT 10SM CLR 28/M03 A3018 RMK AO1

More Conditions Fewer Conditions

10-Day Weather Forecast

Almanac

Astronomy

Sep. 01, 2014 Rise Set
Actual Time 6:29 AM PDT 7:27 PM PDT
Civil Twilight 6:02 AM PDT 7:54 PM PDT
Nautical Twilight 5:30 AM PDT 8:26 PM PDT
Astronomical Twilight 4:57 AM PDT 8:59 PM PDT
Moon 1:12 PM PDT 11:40 PM PDT
Length of Visible Light 13h 52m
Length of Day
12h 58m
Tomorrow will be 2m 19s shorter.
Waxing Crescent, 44% of the Moon is Illuminated
Today
Waxing Crescent
Sep 2
First Quarter
Sep 8
Full
Sep 15
Last Quarter
Sep 24
New

Today's Extremes

State Highs State Lows

Community

WunderPhotos

Upload Photos

1,749,397 photos uploaded!

WunderBlogs® & News

Nearby

Snow Depth

Station Depth Elevation
Leavitt Meadows 0 in 7200 ft
Forestdale Creek 0 in 8029 ft
CSS Lab 1 in 6900 ft
Adin Mountain 0 in 6200 ft

Earthquake Activity

City Distance Mag. Time & Date
Gilroy, California 109 miles 3.5 9:10 AM PDT
2014-09-01
Gonzales, California 112 miles 2.7 9:48 PM PDT
2014-08-30
Ridgemark, California 113 miles 3.4 4:32 PM PDT
2014-08-29
Ridgemark, California 113 miles 3.0 2:44 PM PDT
2014-08-29
Minimum magnitude displayed is 2.5.

Coastal Water Temperatures

Place Temperature
No Stations Reporting

Nearby Weather Stations